createdAt,value
2023-05-22T00:00:18.070Z,0.0000
2023-05-22T00:01:19.896Z,0.0000
2023-05-22T00:02:22.168Z,0.0000
2023-05-22T00:03:23.345Z,0.0000
2023-05-22T00:04:25.318Z,0.0000
2023-05-22T00:05:27.283Z,0.0000
2023-05-22T00:07:29.177Z,0.0000
2023-05-22T00:10:32.212Z,0.0000
2023-05-22T00:11:34.266Z,0.0000
2023-05-22T00:16:40.560Z,0.0000
2023-05-22T00:17:40.879Z,0.0000
2023-05-22T00:18:42.112Z,0.0000
2023-05-22T00:19:43.983Z,0.0000
2023-05-22T00:20:45.204Z,0.0000
2023-05-22T00:21:47.427Z,0.0000
2023-05-22T00:22:48.670Z,0.0000
2023-05-22T00:23:50.306Z,0.0000
2023-05-22T00:24:51.495Z,0.0000
2023-05-22T00:25:52.433Z,0.0000
2023-05-22T00:26:54.325Z,0.0000
2023-05-22T00:28:07.312Z,0.0000
2023-05-22T00:29:27.852Z,0.0000
2023-05-22T00:30:28.489Z,0.0000
2023-05-22T00:31:31.320Z,0.0000
2023-05-22T00:34:35.448Z,0.0000
2023-05-22T00:35:35.649Z,0.0000
2023-05-22T00:37:38.550Z,0.0000
2023-05-22T00:38:40.368Z,0.0000
2023-05-22T00:39:42.605Z,0.0000
2023-05-22T00:40:43.806Z,0.0000
2023-05-22T00:48:30.617Z,0.0000
2023-05-22T00:49:31.210Z,0.0000
2023-05-22T00:50:31.607Z,0.0000
2023-05-22T00:51:35.738Z,0.0000
2023-05-22T00:58:41.915Z,0.0000
2023-05-22T00:59:44.082Z,0.0000
2023-05-22T01:00:44.670Z,0.0000
2023-05-22T01:01:46.831Z,0.0000
2023-05-22T01:09:25.029Z,0.0000
2023-05-22T01:10:25.664Z,0.0000
2023-05-22T01:11:27.488Z,0.0000
2023-05-22T01:12:28.849Z,0.0000
2023-05-22T01:13:30.093Z,0.0000
2023-05-22T01:16:02.539Z,0.0000
2023-05-22T01:17:03.789Z,0.0000
2023-05-22T01:19:06.685Z,0.0000
2023-05-22T01:20:08.670Z,0.0000
2023-05-22T01:21:09.040Z,0.0000
2023-05-22T01:22:10.274Z,0.0000
2023-05-22T01:23:10.560Z,0.0000
2023-05-22T01:24:12.790Z,0.0000
2023-05-22T01:25:14.160Z,0.0000
2023-05-22T01:26:15.816Z,0.0000
2023-05-22T01:27:16.967Z,0.0000
2023-05-22T01:28:19.039Z,0.0000
2023-05-22T01:29:20.299Z,0.0000
2023-05-22T01:30:21.698Z,0.0000
2023-05-22T01:31:21.965Z,0.0000
2023-05-22T01:32:23.003Z,0.0000
2023-05-22T01:33:24.809Z,0.0000
2023-05-22T01:34:26.863Z,0.0000
2023-05-22T01:35:28.939Z,0.0000
2023-05-22T01:36:30.809Z,0.0000
2023-05-22T01:37:32.089Z,0.0000
2023-05-22T01:38:33.782Z,0.0000
2023-05-22T01:39:35.038Z,0.0000
2023-05-22T01:40:36.693Z,0.0000
2023-05-22T01:41:38.497Z,0.0000
2023-05-22T01:42:40.335Z,0.0000
2023-05-22T01:43:41.105Z,0.0000
2023-05-22T01:44:40.480Z,0.0000
2023-05-22T01:45:41.047Z,0.0000
2023-05-22T01:46:41.221Z,0.0000
2023-05-22T01:47:42.244Z,0.0000
2023-05-22T01:48:44.872Z,0.0000
2023-05-22T01:49:46.357Z,0.0000
2023-05-22T01:50:48.371Z,0.0000
2023-05-22T01:51:49.576Z,0.0000
2023-05-22T01:52:51.444Z,0.0000
2023-05-22T01:53:53.192Z,0.0000
2023-05-22T01:54:55.326Z,0.0000
2023-05-22T01:57:58.667Z,0.0000
2023-05-22T02:06:08.152Z,0.0000
2023-05-22T02:08:10.036Z,0.0000
2023-05-22T02:09:11.558Z,0.0000
2023-05-22T02:11:12.103Z,0.0000
2023-05-22T02:12:12.769Z,0.0000
2023-05-22T02:13:13.007Z,0.0000
2023-05-22T02:14:14.798Z,0.0000
2023-05-22T02:16:16.681Z,0.0000
2023-05-22T02:18:18.787Z,0.0000
2023-05-22T02:19:20.144Z,0.0000
2023-05-22T02:20:22.953Z,0.0000
2023-05-22T02:21:23.575Z,0.0000
2023-05-22T02:22:24.651Z,0.0000
2023-05-22T02:23:26.053Z,0.0000
2023-05-22T02:24:26.802Z,0.0000
2023-05-22T02:25:28.896Z,0.0000
2023-05-22T02:26:31.106Z,0.0000
2023-05-22T02:27:32.156Z,0.0000
2023-05-22T02:28:34.266Z,0.0000
2023-05-22T02:29:35.295Z,0.0000
2023-05-22T02:30:36.907Z,0.0000
2023-05-22T02:31:38.724Z,0.0000
2023-05-22T02:32:39.467Z,0.0000
2023-05-22T02:33:40.906Z,0.0000
2023-05-22T02:34:42.693Z,0.0000
2023-05-22T02:35:44.186Z,0.0000
2023-05-22T02:36:45.836Z,0.0000
2023-05-22T02:37:47.244Z,0.0000
2023-05-22T02:38:49.003Z,0.0000
2023-05-22T02:39:49.720Z,0.0000
2023-05-22T02:42:53.770Z,0.0000
2023-05-22T02:43:53.734Z,0.0000
2023-05-22T02:44:55.369Z,0.0000
2023-05-22T02:45:57.454Z,0.0000
2023-05-22T02:46:59.075Z,0.0000
2023-05-22T02:48:00.207Z,0.0000
2023-05-22T02:49:01.646Z,0.0000
2023-05-22T02:50:02.117Z,0.0000
2023-05-22T02:51:02.190Z,0.0000
2023-05-22T02:52:04.600Z,0.0000
2023-05-22T02:53:05.564Z,0.0000
2023-05-22T02:54:07.224Z,0.0000
2023-05-22T02:55:08.903Z,0.0000
2023-05-22T02:56:09.077Z,0.0000
2023-05-22T02:57:10.221Z,0.0000
2023-05-22T02:58:25.577Z,0.0000
2023-05-22T02:59:43.065Z,0.0000
2023-05-22T03:00:44.077Z,0.0000
2023-05-22T03:01:46.204Z,0.0000
2023-05-22T03:03:48.670Z,0.0000
2023-05-22T03:04:50.226Z,0.0000
2023-05-22T03:05:50.922Z,0.0000
2023-05-22T03:06:52.220Z,0.0000
2023-05-22T03:07:53.626Z,0.0000
2023-05-22T03:10:54.031Z,0.0000
2023-05-22T03:11:55.233Z,0.0000
2023-05-22T03:12:55.347Z,0.0000
2023-05-22T03:13:57.501Z,0.0000
2023-05-22T03:14:58.948Z,0.0000
2023-05-22T03:16:00.410Z,0.0000
2023-05-22T03:17:02.259Z,0.0000
2023-05-22T03:18:03.621Z,0.0000
2023-05-22T03:19:05.403Z,0.0000
2023-05-22T03:21:06.353Z,0.0000
2023-05-22T03:22:08.281Z,0.0000
2023-05-22T03:23:09.505Z,0.0000
2023-05-22T03:24:10.128Z,0.0000
2023-05-22T03:25:10.808Z,0.0000
2023-05-22T03:26:12.757Z,0.0000
2023-05-22T03:27:13.862Z,0.0000
2023-05-22T03:28:16.047Z,0.0000
2023-05-22T03:29:16.364Z,0.0000
2023-05-22T03:30:16.579Z,0.0000
2023-05-22T03:31:18.753Z,2.0833
2023-05-22T03:32:20.356Z,5.6250
2023-05-22T03:33:20.989Z,5.6250
2023-05-22T03:35:21.871Z,5.6250
2023-05-22T03:36:23.031Z,5.6250
2023-05-22T03:37:23.823Z,5.6250
2023-05-22T03:38:25.756Z,11.2500
2023-05-22T03:39:26.893Z,11.2500
2023-05-22T03:40:28.307Z,11.2500
2023-05-22T03:41:28.717Z,11.2500
2023-05-22T03:42:30.385Z,15.0000
2023-05-22T03:43:31.028Z,16.8750
2023-05-22T03:44:32.129Z,16.8750
2023-05-22T03:45:37.627Z,18.8315
2023-05-22T03:51:40.921Z,33.7500
2023-05-22T03:52:41.310Z,34.4837
2023-05-22T03:53:42.715Z,39.3750
2023-05-22T03:54:44.358Z,39.6094
2023-05-22T03:55:46.309Z,45.0000
2023-05-22T03:56:48.892Z,45.2163
2023-05-22T04:04:55.899Z,67.9891
2023-05-22T04:05:58.219Z,73.1250
2023-05-22T04:06:59.460Z,74.4231
2023-05-22T04:08:01.186Z,78.7500
2023-05-22T04:09:02.158Z,80.6250
2023-05-22T04:10:02.223Z,84.3750
2023-05-22T04:11:02.581Z,85.7812
2023-05-22T04:12:03.822Z,90.0000
2023-05-22T04:13:04.290Z,90.9375
2023-05-22T04:14:07.615Z,95.6250
2023-05-22T04:15:09.033Z,96.7500
2023-05-22T04:16:09.685Z,101.2500
2023-05-22T04:17:12.054Z,103.3594
2023-05-22T04:18:12.428Z,106.8750
2023-05-22T04:19:12.820Z,110.5435
2023-05-22T04:20:15.437Z,112.5000
2023-05-22T04:21:16.386Z,117.6562
2023-05-22T04:22:17.956Z,119.2969
2023-05-22T04:23:20.302Z,123.7500
2023-05-22T04:24:21.151Z,125.8594
2023-05-22T04:25:23.851Z,129.3750
2023-05-22T04:27:25.066Z,135.4688
2023-05-22T04:29:29.197Z,144.6750
2023-05-22T04:30:31.158Z,147.4219
2023-05-22T04:31:33.165Z,151.8750
2023-05-22T04:32:35.210Z,156.7969
2023-05-22T04:40:42.088Z,181.4062
2023-05-22T04:41:44.412Z,185.6250
2023-05-22T04:42:46.245Z,187.5721
2023-05-22T04:43:48.236Z,191.2500
2023-05-22T04:44:49.344Z,194.7656
2023-05-22T04:45:51.745Z,196.8750
2023-05-22T04:51:58.945Z,213.2812
2023-05-22T04:53:00.737Z,212.5781
2023-05-22T04:54:02.713Z,213.7500
2023-05-22T04:55:04.585Z,217.1250
2023-05-22T04:56:03.977Z,219.6094
2023-05-22T04:57:06.177Z,225.0000
2023-05-22T04:59:07.520Z,230.6250
2023-05-22T05:00:08.935Z,234.0000
2023-05-22T05:01:10.329Z,236.7188
2023-05-22T05:02:12.371Z,236.2500
2023-05-22T05:03:13.538Z,241.0096
2023-05-22T05:04:13.863Z,241.8750
2023-05-22T05:05:15.219Z,241.8750
2023-05-22T05:06:16.677Z,242.3250
2023-05-22T05:07:19.051Z,245.9856
2023-05-22T05:08:21.056Z,252.2250
2023-05-22T05:16:29.915Z,298.1250
2023-05-22T05:17:30.165Z,309.1304
2023-05-22T05:18:32.343Z,322.3558
2023-05-22T05:20:33.672Z,318.2812
2023-05-22T05:21:35.460Z,333.0469
2023-05-22T05:22:36.022Z,333.6750
2023-05-22T05:23:38.136Z,315.9375
2023-05-22T05:24:40.110Z,315.4688
2023-05-22T05:25:41.978Z,319.9219
2023-05-22T05:26:43.148Z,322.8750
2023-05-22T05:27:44.457Z,327.3317
2023-05-22T05:28:46.166Z,337.0312
2023-05-22T05:29:46.653Z,349.3990
2023-05-22T05:30:48.014Z,396.0000
2023-05-22T05:31:50.051Z,426.8250
2023-05-22T05:33:51.606Z,403.3594
2023-05-22T05:35:54.401Z,540.0000
2023-05-22T05:36:54.931Z,507.5481
2023-05-22T05:38:57.153Z,417.3750
2023-05-22T05:39:57.428Z,385.3125
2023-05-22T05:40:59.293Z,400.7812
2023-05-22T05:42:00.918Z,445.2750
2023-05-22T05:43:01.897Z,450.2344
2023-05-22T05:45:02.211Z,476.9531
2023-05-22T05:46:02.343Z,604.6875
2023-05-22T05:48:05.137Z,550.2717
2023-05-22T05:49:06.641Z,479.2067
2023-05-22T05:50:07.146Z,423.2250
2023-05-22T05:51:09.355Z,461.4844
2023-05-22T05:52:10.850Z,548.8043
2023-05-22T05:55:14.678Z,661.1719
2023-05-22T05:56:15.084Z,606.3750
2023-05-22T05:57:16.233Z,510.0000
2023-05-22T05:58:17.435Z,543.9844
2023-05-22T05:59:18.947Z,647.9567
2023-05-22T06:00:20.277Z,584.5312
2023-05-22T06:01:22.393Z,495.0000
2023-05-22T06:02:23.982Z,467.3438
2023-05-22T06:03:27.590Z,440.9511
2023-05-22T06:04:25.374Z,547.3370
2023-05-22T06:06:27.931Z,663.5336
2023-05-22T06:07:29.117Z,583.4250
2023-05-22T06:08:30.329Z,563.3654
2023-05-22T06:09:31.771Z,805.0781
2023-05-22T06:10:32.997Z,811.6406
2023-05-22T06:11:34.812Z,693.2812
2023-05-22T06:12:36.249Z,537.4219
2023-05-22T06:13:37.978Z,468.7500
2023-05-22T06:14:39.523Z,466.6406
2023-05-22T06:15:41.448Z,596.4844
2023-05-22T06:16:44.323Z,678.0469
2023-05-22T06:17:44.360Z,642.4728
2023-05-22T06:18:44.445Z,501.8478
2023-05-22T06:19:45.940Z,494.0625
2023-05-22T06:20:47.249Z,510.9375
2023-05-22T06:21:51.410Z,620.6971
2023-05-22T06:22:50.644Z,658.3807
2023-05-22T06:23:52.623Z,728.4375
2023-05-22T06:24:53.824Z,630.0000
2023-05-22T06:25:55.180Z,627.5543
2023-05-22T06:26:57.276Z,979.4531
2023-05-22T06:27:59.501Z,1153.1250
2023-05-22T06:29:03.000Z,843.0469
2023-05-22T06:31:03.624Z,768.7500
2023-05-22T06:32:04.530Z,1130.6250
2023-05-22T06:33:06.195Z,1159.4531
2023-05-22T06:34:07.720Z,1354.2188
2023-05-22T06:35:08.230Z,1114.1827
2023-05-22T06:36:08.284Z,758.4750
2023-05-22T06:37:10.322Z,558.2812
2023-05-22T06:38:11.575Z,532.0312
2023-05-22T06:42:45.201Z,610.7452
2023-05-22T06:43:46.881Z,566.4844
2023-05-22T06:45:48.913Z,809.0625
2023-05-22T06:48:49.700Z,590.8594
2023-05-22T06:49:50.748Z,639.4500
2023-05-22T06:50:52.728Z,706.6406
2023-05-22T06:51:54.385Z,705.0721
2023-05-22T06:52:55.024Z,782.0914
2023-05-22T06:54:56.404Z,668.2031
2023-05-22T06:55:57.810Z,829.9039
2023-05-22T06:57:59.490Z,1214.5312
2023-05-22T06:59:00.825Z,951.3281
2023-05-22T07:00:02.525Z,760.9500
2023-05-22T07:02:05.782Z,803.9062
2023-05-22T07:03:07.293Z,962.8125
2023-05-22T07:04:09.251Z,1425.7212
2023-05-22T07:05:09.290Z,737.5500
2023-05-22T07:06:11.577Z,616.9500
2023-05-22T07:07:14.181Z,549.8438
2023-05-22T07:10:17.118Z,866.9531
2023-05-22T07:11:19.119Z,1025.8334
2023-05-22T07:12:20.397Z,1117.7344
2023-05-22T07:13:21.916Z,1193.4375
2023-05-22T07:14:23.757Z,1046.4844
2023-05-22T07:15:24.975Z,1381.1719
2023-05-22T07:16:26.267Z,1415.3365
2023-05-22T07:17:26.969Z,1128.6000
2023-05-22T07:20:31.778Z,2048.4375
2023-05-22T07:21:33.704Z,1667.3438
2023-05-22T07:22:35.194Z,1134.8438
2023-05-22T07:23:36.426Z,1281.7969
2023-05-22T07:25:38.091Z,1501.8750
2023-05-22T07:26:39.031Z,1345.9500
2023-05-22T07:27:40.286Z,1238.9062
2023-05-22T07:28:41.979Z,1537.2656
2023-05-22T07:29:43.152Z,1578.5156
2023-05-22T07:30:44.500Z,1889.2969
2023-05-22T07:31:45.323Z,1798.0529
2023-05-22T07:32:45.390Z,1659.3750
2023-05-22T07:33:46.444Z,1632.6562
2023-05-22T07:34:48.036Z,1143.8221
2023-05-22T07:35:49.453Z,966.3281
2023-05-22T07:36:50.462Z,970.7452
2023-05-22T07:37:52.075Z,791.2500
2023-05-22T07:38:53.884Z,653.4375
2023-05-22T07:39:54.258Z,777.4728
2023-05-22T07:40:56.378Z,1164.3750
2023-05-22T07:41:58.812Z,2079.3750
2023-05-22T07:42:58.170Z,1428.2812
2023-05-22T07:43:58.286Z,1091.2500
2023-05-22T07:45:00.130Z,1368.7500
2023-05-22T07:46:02.138Z,1310.6250
2023-05-22T07:47:02.850Z,1327.2837
2023-05-22T07:48:02.933Z,1579.6467
2023-05-22T07:49:03.656Z,1596.5625
2023-05-22T07:50:04.408Z,1558.3500
2023-05-22T07:51:05.853Z,1681.4423
2023-05-22T07:52:07.674Z,1988.6719
2023-05-22T07:53:08.279Z,1564.8318
2023-05-22T07:54:09.598Z,1955.4750
2023-05-22T07:55:09.664Z,1887.6562
2023-05-22T07:56:11.567Z,2012.1094
2023-05-22T07:57:13.622Z,2063.9062
2023-05-22T07:58:16.535Z,2172.0535
2023-05-22T07:59:17.517Z,2036.6827
2023-05-22T08:00:19.687Z,1776.2019
2023-05-22T08:01:20.302Z,1818.7500
2023-05-22T08:02:22.342Z,1394.7916
2023-05-22T08:03:24.378Z,985.5000
2023-05-22T08:04:23.954Z,1364.6740
2023-05-22T08:05:24.902Z,1837.0312
2023-05-22T08:06:25.350Z,1766.7391
2023-05-22T08:07:27.333Z,1972.5000
2023-05-22T08:08:31.699Z,1747.7344
2023-05-22T08:09:31.226Z,1803.9131
2023-05-22T08:10:46.504Z,1525.5469
2023-05-22T08:12:04.789Z,1732.9688
2023-05-22T08:13:04.868Z,1169.5312
2023-05-22T08:14:07.050Z,867.1875
2023-05-22T08:15:08.822Z,680.6250
2023-05-22T08:16:11.000Z,660.0000
2023-05-22T08:17:11.963Z,656.2500
2023-05-22T08:18:14.152Z,653.9062
2023-05-22T08:19:15.710Z,647.3077
2023-05-22T08:20:17.380Z,645.4688
2023-05-22T08:21:19.181Z,645.9375
2023-05-22T08:22:21.134Z,649.4531
2023-05-22T08:23:22.561Z,654.9750
2023-05-22T08:24:23.778Z,654.6094
2023-05-22T08:25:25.422Z,661.6406
2023-05-22T08:26:26.662Z,659.7000
2023-05-22T08:27:28.398Z,664.4531
2023-05-22T08:28:30.006Z,666.0938
2023-05-22T08:29:30.623Z,672.7500
2023-05-22T08:30:30.828Z,979.4531
2023-05-22T08:31:32.334Z,2324.7656
2023-05-22T08:32:32.590Z,3029.3999
2023-05-22T08:33:34.056Z,2366.2500
2023-05-22T08:34:35.457Z,1240.7452
2023-05-22T08:35:37.153Z,736.6406
2023-05-22T08:36:38.713Z,833.2031
2023-05-22T08:37:40.011Z,1253.6719
2023-05-22T08:38:41.769Z,2539.6875
2023-05-22T08:39:43.305Z,3244.6875
2023-05-22T08:40:46.466Z,3266.3943
2023-05-22T08:41:46.539Z,3279.1304
2023-05-22T08:42:48.340Z,3011.4844
2023-05-22T08:43:50.186Z,3348.9844
2023-05-22T08:44:51.687Z,3402.8999
2023-05-22T08:45:53.300Z,3465.9375
2023-05-22T08:46:54.957Z,3505.5469
2023-05-22T08:47:56.979Z,3422.5962
2023-05-22T08:48:59.017Z,2639.4231
2023-05-22T08:49:59.781Z,1626.7068
2023-05-22T08:51:00.077Z,1808.9062
2023-05-22T08:52:01.542Z,2981.0337
2023-05-22T08:53:02.647Z,3467.1636
2023-05-22T08:54:02.868Z,3377.8125
2023-05-22T08:55:04.336Z,3543.7500
2023-05-22T08:56:06.144Z,3549.3750
2023-05-22T08:57:07.793Z,3462.8906
2023-05-22T08:58:08.432Z,3589.1826
2023-05-22T08:59:09.770Z,3550.5000
2023-05-22T09:00:10.238Z,3631.1719
2023-05-22T09:01:12.085Z,3635.3906
2023-05-22T09:02:13.924Z,3228.9844
2023-05-22T09:03:15.189Z,2389.7251
2023-05-22T09:04:17.316Z,3030.0000
2023-05-22T09:05:19.106Z,3514.6875
2023-05-22T09:06:20.981Z,3610.3125
2023-05-22T09:07:22.797Z,3643.3594
2023-05-22T09:08:24.843Z,3619.5833
2023-05-22T09:09:26.386Z,3053.5095
2023-05-22T09:10:26.861Z,3431.7188
2023-05-22T09:11:28.670Z,3250.0781
2023-05-22T09:12:29.933Z,3410.1001
2023-05-22T09:13:31.870Z,2427.6201
2023-05-22T09:14:33.181Z,1936.4062
2023-05-22T09:15:34.852Z,1909.4712
2023-05-22T09:16:35.626Z,2102.3438
2023-05-22T09:17:37.874Z,1646.7188
2023-05-22T09:18:39.243Z,2052.0000
2023-05-22T09:19:40.477Z,2994.6636
2023-05-22T09:20:41.419Z,2897.5239
2023-05-22T09:21:41.895Z,3053.6414
2023-05-22T09:22:43.505Z,3153.3750
2023-05-22T09:23:45.310Z,3374.5312
2023-05-22T09:24:47.022Z,2600.6250
2023-05-22T09:25:48.967Z,2743.7019
2023-05-22T09:26:51.024Z,3749.7114
2023-05-22T09:27:52.650Z,3797.5781
2023-05-22T09:28:53.978Z,3776.8501
2023-05-22T09:29:55.809Z,3767.3438
2023-05-22T09:30:56.284Z,3774.8250
2023-05-22T09:31:56.535Z,3310.5288
2023-05-22T09:32:58.682Z,3259.9038
2023-05-22T09:33:59.102Z,2676.4182
2023-05-22T09:35:00.850Z,1908.9844
2023-05-22T09:36:01.878Z,2025.0000
2023-05-22T09:37:03.766Z,2452.9500
2023-05-22T09:38:04.792Z,2644.8318
2023-05-22T09:39:06.995Z,2713.8462
2023-05-22T09:40:07.652Z,2592.4761
2023-05-22T09:41:09.684Z,3260.7693
2023-05-22T09:42:11.213Z,2492.3438
2023-05-22T09:43:11.412Z,2562.6201
2023-05-22T09:44:12.538Z,3482.9568
2023-05-22T09:45:13.904Z,3798.3894
2023-05-22T09:46:14.922Z,3776.3999
2023-05-22T09:47:16.843Z,3585.2344
2023-05-22T09:48:17.161Z,3333.7500
2023-05-22T09:49:19.311Z,3065.0000
2023-05-22T09:50:21.511Z,2452.0312
2023-05-22T09:51:23.261Z,3640.0781
2023-05-22T09:52:23.498Z,3062.2500
2023-05-22T09:53:25.231Z,3979.2188
2023-05-22T09:54:27.065Z,3629.7656
2023-05-22T09:55:27.265Z,3964.5000
2023-05-22T09:56:38.486Z,3094.3989
2023-05-22T09:57:29.586Z,3252.5894
2023-05-22T09:58:31.273Z,3898.3594
2023-05-22T09:59:32.781Z,3970.3125
2023-05-22T10:00:34.501Z,3943.5938
2023-05-22T10:01:34.886Z,3995.3250
2023-05-22T10:02:35.706Z,3490.5288
2023-05-22T10:03:37.446Z,2802.4219
2023-05-22T10:04:39.495Z,3652.2656
2023-05-22T10:05:39.859Z,3570.0750
2023-05-22T10:06:41.620Z,2897.5781
2023-05-22T10:07:43.666Z,2650.7251
2023-05-22T10:08:44.083Z,2513.6719
2023-05-22T10:09:46.135Z,2826.3281
2023-05-22T10:10:47.374Z,3513.8250
2023-05-22T10:11:49.262Z,3814.4531
2023-05-22T10:12:51.127Z,2965.3125
2023-05-22T10:13:53.328Z,1837.5750
2023-05-22T10:14:54.312Z,1096.1719
2023-05-22T10:15:56.193Z,802.1250
2023-05-22T10:16:57.858Z,785.3906
2023-05-22T10:17:59.434Z,777.6562
2023-05-22T10:19:01.092Z,777.4219
2023-05-22T10:20:00.950Z,776.4750
2023-05-22T10:21:02.179Z,772.0312
2023-05-22T10:22:02.434Z,773.2211
2023-05-22T10:23:04.119Z,776.0156
2023-05-22T10:24:04.925Z,779.7115
2023-05-22T10:25:08.516Z,784.6875
2023-05-22T10:26:08.020Z,959.5739
2023-05-22T10:27:09.374Z,1740.7031
2023-05-22T10:30:13.506Z,3185.9136
2023-05-22T10:31:14.921Z,1630.5469
2023-05-22T10:32:16.462Z,2444.2969
2023-05-22T10:33:17.006Z,2639.7000
2023-05-22T10:34:17.535Z,3363.9663
2023-05-22T10:35:19.248Z,2361.3281
2023-05-22T10:36:21.279Z,1539.3750
2023-05-22T10:37:22.564Z,840.7031
2023-05-22T10:38:24.173Z,810.2344
2023-05-22T10:39:24.650Z,798.0750
2023-05-22T10:40:27.034Z,791.0156
2023-05-22T10:41:28.582Z,790.8750
2023-05-22T10:42:30.328Z,792.4219
2023-05-22T10:43:30.408Z,781.6406
2023-05-22T10:44:30.889Z,780.0000
2023-05-22T10:45:32.146Z,786.0938
2023-05-22T10:46:32.549Z,796.3043
2023-05-22T10:47:32.929Z,801.7969
2023-05-22T10:48:33.993Z,800.8594
2023-05-22T10:49:35.386Z,807.9750
2023-05-22T10:50:36.733Z,820.8173
2023-05-22T10:51:38.512Z,1103.6719
2023-05-22T10:52:39.937Z,1921.1719
2023-05-22T10:53:41.653Z,2961.7969
2023-05-22T10:54:43.107Z,4136.0156
2023-05-22T10:55:44.769Z,4173.5156
2023-05-22T10:56:46.471Z,4235.6250
2023-05-22T10:57:48.115Z,4009.3269
2023-05-22T10:58:49.931Z,4222.7344
2023-05-22T10:59:51.468Z,4246.8750
2023-05-22T11:00:53.130Z,4187.9248
2023-05-22T11:01:53.997Z,4238.8701
2023-05-22T11:03:00.812Z,4244.9277
2023-05-22T11:04:57.385Z,4253.3999
2023-05-22T11:05:59.276Z,4220.3252
2023-05-22T11:07:00.638Z,4208.9062
2023-05-22T11:08:00.904Z,4100.1924
2023-05-22T11:09:02.806Z,4136.7188
2023-05-22T11:10:03.781Z,4197.1499
2023-05-22T11:11:04.025Z,3255.9751
2023-05-22T11:12:04.550Z,4244.1748
2023-05-22T11:13:05.512Z,3340.1682
2023-05-22T11:14:07.458Z,3510.4688
2023-05-22T11:15:08.307Z,3488.1489
2023-05-22T11:16:09.678Z,4155.5249
2023-05-22T11:17:11.527Z,4317.5000
2023-05-22T11:18:11.993Z,4326.3589
2023-05-22T11:20:13.716Z,4328.5596
2023-05-22T11:22:13.851Z,4359.8076
2023-05-22T11:23:14.714Z,4354.2188
2023-05-22T11:24:16.052Z,4172.5781
2023-05-22T11:25:16.194Z,4362.5249
2023-05-22T11:26:16.294Z,3998.2932
2023-05-22T11:27:16.710Z,4364.1348
2023-05-22T11:28:18.282Z,4169.5312
2023-05-22T11:29:19.916Z,4237.7344
2023-05-22T11:30:21.362Z,4390.0781
2023-05-22T11:31:23.316Z,4362.1875
2023-05-22T11:32:25.103Z,4171.7251
2023-05-22T11:33:26.873Z,4196.9531
2023-05-22T11:34:27.780Z,4270.2749
2023-05-22T11:35:29.198Z,4395.4688
2023-05-22T11:36:30.638Z,4404.8438
2023-05-22T11:37:32.288Z,3751.0095
2023-05-22T11:38:33.943Z,4287.4219
2023-05-22T11:39:34.423Z,4175.1001
2023-05-22T11:40:35.642Z,4369.2188
2023-05-22T11:41:35.828Z,4356.2251
2023-05-22T11:42:36.187Z,4070.7000
2023-05-22T11:43:37.259Z,4355.6250
2023-05-22T11:44:39.340Z,4368.7500
2023-05-22T11:45:40.094Z,4355.8594
2023-05-22T11:46:41.735Z,4331.2500
2023-05-22T11:47:43.506Z,4290.9375
2023-05-22T11:48:45.578Z,4275.8652
2023-05-22T11:49:45.922Z,4239.0864
2023-05-22T11:50:47.647Z,4245.2344
2023-05-22T11:51:48.652Z,4258.3413
2023-05-22T11:52:49.604Z,4248.1729
2023-05-22T11:53:50.374Z,4229.5498
2023-05-22T11:54:51.678Z,4214.2500
2023-05-22T11:55:52.784Z,4192.9688
2023-05-22T11:56:54.493Z,4187.1094
2023-05-22T11:57:56.013Z,4198.1250
2023-05-22T11:58:56.202Z,4203.1729
2023-05-22T11:59:56.948Z,4210.4248
2023-05-22T12:00:57.060Z,4218.5337
2023-05-22T12:01:58.063Z,4223.0771
2023-05-22T12:02:59.404Z,4235.6250
2023-05-22T12:04:00.035Z,4221.4404
2023-05-22T12:05:01.338Z,4208.6250
2023-05-22T12:06:03.146Z,4181.5386
2023-05-22T12:07:04.211Z,4170.6001
2023-05-22T12:08:04.823Z,4189.9219
2023-05-22T12:09:06.810Z,4238.1001
2023-05-22T12:10:08.954Z,4271.6250
2023-05-22T12:11:10.356Z,4319.2969
2023-05-22T12:12:10.992Z,4320.4502
2023-05-22T12:13:11.002Z,4287.1152
2023-05-22T12:14:11.720Z,4238.6719
2023-05-22T12:15:13.692Z,4246.4424
2023-05-22T12:16:14.289Z,4274.3511
2023-05-22T12:17:14.831Z,4299.2998
2023-05-22T12:18:14.835Z,4271.3223
2023-05-22T12:19:16.068Z,4260.9375
2023-05-22T12:20:17.949Z,4230.8652
2023-05-22T12:21:18.616Z,4217.3438
2023-05-22T12:22:19.732Z,4245.1440
2023-05-22T12:23:20.475Z,4293.5156
2023-05-22T12:24:21.274Z,4330.5752
2023-05-22T12:25:21.337Z,4334.6250
2023-05-22T12:26:23.501Z,4374.3750
2023-05-22T12:27:24.676Z,4428.5156
2023-05-22T12:28:26.681Z,4404.7915
2023-05-22T12:29:28.585Z,4395.3750
2023-05-22T12:30:30.472Z,4224.3750
2023-05-22T12:31:32.604Z,4196.0337
2023-05-22T12:32:32.701Z,3951.5625
2023-05-22T12:33:34.857Z,3682.9167
2023-05-22T12:34:36.469Z,3602.5781
2023-05-22T12:35:38.073Z,4000.3125
2023-05-22T12:36:38.340Z,3485.7693
2023-05-22T12:37:40.413Z,3068.1001
2023-05-22T12:38:40.946Z,2077.7886
2023-05-22T12:39:41.912Z,3202.1394
2023-05-22T12:40:43.694Z,4223.5098
2023-05-22T12:41:44.282Z,4071.8511
2023-05-22T12:42:45.356Z,4140.4502
2023-05-22T12:43:47.397Z,4164.4473
2023-05-22T12:44:49.009Z,4164.0146
2023-05-22T12:45:50.657Z,4199.2969
2023-05-22T12:46:52.186Z,4196.2500
2023-05-22T12:47:53.297Z,1837.8000
2023-05-22T12:48:55.211Z,1197.4760
2023-05-22T12:49:56.615Z,1299.3750
2023-05-22T12:50:57.016Z,1343.0250
2023-05-22T12:51:57.716Z,1147.2750
2023-05-22T12:52:57.812Z,1281.6346
2023-05-22T12:53:58.945Z,2067.1875
2023-05-22T12:55:00.377Z,3913.8281
2023-05-22T12:56:00.670Z,3945.9375
2023-05-22T12:57:02.716Z,4004.7917
2023-05-22T12:58:02.736Z,4034.7000
2023-05-22T12:59:04.835Z,4021.2500
2023-05-22T13:00:05.082Z,4011.3000
2023-05-22T13:01:06.554Z,3921.9751
2023-05-22T13:02:07.948Z,3770.6250
2023-05-22T13:03:09.573Z,3657.4219
2023-05-22T13:04:11.042Z,3547.2656
2023-05-22T13:05:11.517Z,3420.2163
2023-05-22T13:06:13.151Z,3295.3125
2023-05-22T13:07:14.181Z,3275.4807
2023-05-22T13:08:14.370Z,3247.4250
2023-05-22T13:09:14.771Z,3209.6250
2023-05-22T13:10:16.096Z,3186.5625
2023-05-22T13:11:17.347Z,3145.0239
2023-05-22T13:12:17.832Z,3177.4500
2023-05-22T13:13:18.770Z,3204.3030
2023-05-22T13:14:20.545Z,3235.7812
2023-05-22T13:15:22.109Z,3257.3438
2023-05-22T13:16:22.918Z,3281.6250
2023-05-22T13:17:24.520Z,3335.8594
2023-05-22T13:18:25.088Z,3358.1250
2023-05-22T13:19:27.347Z,3391.8750
2023-05-22T13:20:27.912Z,3357.2251
2023-05-22T13:21:29.079Z,3400.4250
2023-05-22T13:22:29.965Z,3446.7188
2023-05-22T13:24:30.283Z,3370.5469
2023-05-22T13:25:30.937Z,3307.5000
2023-05-22T13:26:31.173Z,3122.5239
2023-05-22T13:27:33.942Z,3365.8594
2023-05-22T13:28:33.939Z,3431.4663
2023-05-22T13:29:35.336Z,3471.4905
2023-05-22T13:30:36.836Z,3537.4219
2023-05-22T13:33:41.087Z,3658.1250
2023-05-22T13:35:42.140Z,3665.7693
2023-05-22T13:36:43.379Z,3681.0938
2023-05-22T13:37:45.492Z,3714.7917
2023-05-22T13:39:45.659Z,2378.5095
2023-05-22T13:40:48.194Z,3236.3999
2023-05-22T13:41:45.955Z,3118.8069
2023-05-22T13:42:46.128Z,1076.1057
2023-05-22T13:43:47.550Z,968.3654
2023-05-22T13:45:48.958Z,891.7789
2023-05-22T13:46:50.435Z,916.6406
2023-05-22T13:47:51.839Z,1135.5469
2023-05-22T13:48:53.579Z,918.7500
2023-05-22T13:49:54.149Z,906.0577
2023-05-22T13:50:55.565Z,952.2656
2023-05-22T13:51:57.727Z,2676.2019
2023-05-22T13:52:57.910Z,3804.0750
2023-05-22T13:53:58.171Z,3843.9844
2023-05-22T13:54:59.697Z,3860.8594
2023-05-22T13:56:01.207Z,3866.7188
2023-05-22T13:57:02.868Z,3801.3281
2023-05-22T13:58:04.263Z,3796.6406
2023-05-22T13:59:09.005Z,3785.6250
2023-05-22T14:00:06.482Z,3794.0625
2023-05-22T14:01:06.653Z,3793.3594
2023-05-22T14:02:07.917Z,3780.2344
2023-05-22T14:03:09.088Z,3049.2188
2023-05-22T14:04:09.073Z,1678.9402